Terminal Aerodrome Forecast
Issued by NWS

Home | Current Version | Previous Version | Text Only | Print | Product List | Glossary On
Versions: 1 2 3 4 5 6 7 8 9 10 11 12 13 14 15 16 17 18 19 20
000
FTUS43 KGRB 231003 AAA
TAFMTW
TAF AMD
KMTW 231003Z 2310/2406 22003KT 2SM BR BKN003
      TEMPO 2310/2314 5SM BR SCT003
     FM231400 28005KT P6SM SCT040 BKN100
     FM231600 32009KT P6SM BKN040
     FM232100 36007KT P6SM BKN050
     FM240300 VRB03KT P6SM BKN035=

USA.gov is the U.S. government's official web portal to all federal, state and local government web resources and services.